Asan, Guam
Current Conditions -  °F | °C
As of 5:54 PM on Friday 24 Oct 2014 (Local Time) from PGUM Reporting Station
Clear Clear  
Wind Chill: 84°   Ceiling: Unl
Heat Index: 92°   Visibility: 10mi
Dew Point: 75°   Wind: 6mph
Humidity: 74%   Direction: 90°E
Pressure: 29.87"   Gusts: NA
Location:  13.47°N, 144.71°E
Report Text: PGUM 240754Z 09005KT 10SM CLR 29/24 A2987 RMK AO2 SLP108 T02890239 $
Loading
Personal Weather Stations






























Interactive Weather Map
Tropical Storm Tracking
New forecast layout! Learn more

10-Day Weather Forecast

Advertisements
Track Severe Weather on mobile